createdAt,value
2024-04-21T00:00:33.591Z,92563.03
2024-04-21T00:03:37.610Z,92563.25
2024-04-21T00:06:41.526Z,92556.78
2024-04-21T00:09:45.300Z,92556.84
2024-04-21T00:12:49.353Z,92562.25
2024-04-21T00:15:52.982Z,92569.69
2024-04-21T00:18:56.994Z,92565.13
2024-04-21T00:22:00.753Z,92573.34
2024-04-21T00:25:04.942Z,92579.47
2024-04-21T00:28:09.154Z,92570.22
2024-04-21T00:31:13.091Z,92572.31
2024-04-21T00:34:17.073Z,92580.38
2024-04-21T00:37:20.919Z,92579.78
2024-04-21T00:40:24.894Z,92575.94
2024-04-21T00:43:28.531Z,92581.38
2024-04-21T00:46:34.347Z,92580.81
2024-04-21T00:49:38.196Z,92584.88
2024-04-21T00:52:41.977Z,92580.31
2024-04-21T00:55:46.095Z,92585.72
2024-04-21T00:58:51.064Z,92577.75
2024-04-21T01:01:56.070Z,92575.09
2024-04-21T01:05:01.258Z,92577.13
2024-04-21T01:08:05.633Z,92575.16
2024-04-21T01:11:18.592Z,92574.50
2024-04-21T01:14:22.287Z,92570.47
2024-04-21T01:17:26.129Z,92571.16
2024-04-21T01:20:31.406Z,92573.19
2024-04-21T01:23:35.528Z,92565.88
2024-04-21T01:26:39.138Z,92563.91
2024-04-21T01:29:42.781Z,92561.28
2024-04-21T01:32:46.577Z,92566.59
2024-04-21T01:35:50.702Z,92567.97
2024-04-21T01:38:54.454Z,92563.94
2024-04-21T01:41:57.962Z,92566.59
2024-04-21T01:45:01.727Z,92551.88
2024-04-21T01:48:06.260Z,92549.84
2024-04-21T01:51:09.824Z,92553.19
2024-04-21T01:54:13.567Z,92559.88
2024-04-21T01:57:17.332Z,92554.56
2024-04-21T02:00:21.127Z,92551.19
2024-04-21T02:03:24.999Z,92546.50
2024-04-21T02:06:28.753Z,92549.19
2024-04-21T02:09:32.806Z,92546.50
2024-04-21T02:12:36.672Z,92545.81
2024-04-21T02:15:40.454Z,92527.72
2024-04-21T02:18:44.224Z,92537.09
2024-04-21T02:21:48.228Z,92534.38
2024-04-21T02:24:52.296Z,92532.38
2024-04-21T02:27:55.963Z,92526.31
2024-04-21T02:30:59.733Z,92516.91
2024-04-21T02:34:03.558Z,92517.59
2024-04-21T02:37:07.645Z,92512.25
2024-04-21T02:40:11.941Z,92512.25
2024-04-21T02:43:15.769Z,92509.59
2024-04-21T02:46:19.709Z,92511.59
2024-04-21T02:49:23.824Z,92505.56
2024-04-21T02:52:27.623Z,92499.50
2024-04-21T02:55:31.411Z,92509.50
2024-04-21T02:58:35.271Z,92504.06
2024-04-21T03:01:38.981Z,92502.69
2024-04-21T03:04:42.715Z,92510.03
2024-04-21T03:07:46.293Z,92505.34
2024-04-21T03:10:50.232Z,92508.63
2024-04-21T03:13:54.281Z,92503.19
2024-04-21T03:16:58.035Z,92503.06
2024-04-21T03:20:01.952Z,92503.09
2024-04-21T03:23:06.061Z,92499.78
2024-04-21T03:26:09.699Z,92497.72
2024-04-21T03:29:13.336Z,92491.72
2024-04-21T03:32:20.541Z,92494.41
2024-04-21T03:35:24.222Z,92488.44
2024-04-21T03:38:27.991Z,92485.81
2024-04-21T03:41:31.571Z,92475.69
2024-04-21T03:44:35.972Z,92477.72
2024-04-21T03:47:39.869Z,92479.06
2024-04-21T03:50:44.134Z,92472.41
2024-04-21T03:53:47.725Z,92469.03
2024-04-21T03:56:51.849Z,92476.41
2024-04-21T03:59:55.949Z,92472.34
2024-04-21T04:02:59.590Z,92466.97
2024-04-21T04:06:03.491Z,92476.91
2024-04-21T04:09:07.310Z,92469.50
2024-04-21T04:12:11.095Z,92469.44
2024-04-21T04:15:14.819Z,92465.38
2024-04-21T04:18:18.612Z,92468.75
2024-04-21T04:21:22.210Z,92470.13
2024-04-21T04:24:26.106Z,92459.34
2024-04-21T04:27:29.743Z,92453.16
2024-04-21T04:30:33.361Z,92453.72
2024-04-21T04:33:37.423Z,92462.38
2024-04-21T04:36:41.166Z,92446.91
2024-04-21T04:39:45.011Z,92456.28
2024-04-21T04:42:50.109Z,92442.88
2024-04-21T04:45:53.873Z,92449.56
2024-04-21T04:48:57.687Z,92436.66
2024-04-21T04:52:01.345Z,92435.84
2024-04-21T04:55:05.995Z,92437.84
2024-04-21T04:58:11.251Z,92436.41
2024-04-21T05:01:15.379Z,92435.00
2024-04-21T05:04:19.378Z,92438.94
2024-04-21T05:07:23.262Z,92434.09
2024-04-21T05:10:28.388Z,92442.81
2024-04-21T05:13:31.979Z,92446.72
2024-04-21T05:16:35.729Z,92443.28
2024-04-21T05:19:39.710Z,92439.28
2024-04-21T05:22:43.572Z,92444.66
2024-04-21T05:25:47.309Z,92435.84
2024-04-21T05:28:51.081Z,92443.75
2024-04-21T05:31:55.653Z,92442.28
2024-04-21T05:34:59.609Z,92439.53
2024-04-21T05:38:03.221Z,92437.94
2024-04-21T05:41:07.004Z,92432.28
2024-04-21T05:44:11.032Z,92440.16
2024-04-21T05:47:14.730Z,92437.31
2024-04-21T05:50:18.964Z,92429.19
2024-04-21T05:53:23.025Z,92437.75
2024-04-21T05:56:26.866Z,92435.72
2024-04-21T05:59:30.602Z,92438.19
2024-04-21T06:02:35.322Z,92443.38
2024-04-21T06:05:39.308Z,92442.72
2024-04-21T06:08:43.186Z,92438.00
2024-04-21T06:11:46.862Z,92443.91
2024-04-21T06:14:50.937Z,92439.69
2024-04-21T06:17:54.908Z,92437.63
2024-04-21T06:20:58.717Z,92434.94
2024-04-21T06:24:02.526Z,92437.09
2024-04-21T06:27:06.439Z,92439.13
2024-04-21T06:30:10.531Z,92432.53
2024-04-21T06:33:14.486Z,92429.25
2024-04-21T06:36:18.877Z,92433.31
2024-04-21T06:39:22.629Z,92433.97
2024-04-21T06:42:26.657Z,92432.56
2024-04-21T06:45:30.402Z,92431.34
2024-04-21T06:48:34.098Z,92434.03
2024-04-21T06:51:38.138Z,92440.13
2024-04-21T06:54:42.027Z,92430.19
2024-04-21T06:57:46.524Z,92438.28
2024-04-21T07:00:51.850Z,92435.50
2024-04-21T07:03:55.739Z,92432.75
2024-04-21T07:06:59.399Z,92443.53
2024-04-21T07:10:03.566Z,92440.97
2024-04-21T07:13:07.304Z,92443.09
2024-04-21T07:16:11.040Z,92444.47
2024-04-21T07:19:14.915Z,92447.75
2024-04-21T07:22:18.704Z,92447.06
2024-04-21T07:25:25.416Z,92441.81
2024-04-21T07:28:29.905Z,92445.88
2024-04-21T07:31:34.204Z,92447.94
2024-04-21T07:34:37.786Z,92446.56
2024-04-21T07:37:41.641Z,92446.59
2024-04-21T07:40:45.157Z,92453.38
2024-04-21T07:43:49.106Z,92452.72
2024-04-21T07:46:52.786Z,92446.66
2024-04-21T07:49:56.416Z,92449.38
2024-04-21T07:53:00.281Z,92452.72
2024-04-21T07:56:04.297Z,92458.13
2024-04-21T07:59:08.052Z,92458.97
2024-04-21T08:02:11.973Z,92449.56
2024-04-21T08:05:15.703Z,92458.91
2024-04-21T08:08:20.423Z,92460.97
2024-04-21T08:11:25.010Z,92461.06
2024-04-21T08:14:28.789Z,92453.69
2024-04-21T08:17:32.826Z,92461.19
2024-04-21T08:20:37.128Z,92464.69
2024-04-21T08:23:40.750Z,92457.94
2024-04-21T08:26:44.368Z,92466.88
2024-04-21T08:29:47.887Z,92470.41
2024-04-21T08:32:51.841Z,92468.44
2024-04-21T08:35:57.136Z,92474.56
2024-04-21T08:39:00.968Z,92476.75
2024-04-21T08:42:04.963Z,92480.22
2024-04-21T08:45:09.672Z,92476.97
2024-04-21T08:48:14.458Z,92485.19
2024-04-21T08:51:18.555Z,92479.25
2024-04-21T08:54:22.402Z,92490.78
2024-04-21T08:57:28.502Z,92484.09
2024-04-21T09:00:34.096Z,92491.53
2024-04-21T09:03:39.937Z,92492.28
2024-04-21T09:06:45.906Z,92497.66
2024-04-21T09:09:49.918Z,92495.72
2024-04-21T09:12:55.148Z,92489.03
2024-04-21T09:15:59.134Z,92497.19
2024-04-21T09:19:05.865Z,92500.50
2024-04-21T09:22:10.920Z,92495.91
2024-04-21T09:25:14.860Z,92505.34
2024-04-21T09:28:18.863Z,92508.72
2024-04-21T09:31:22.529Z,92520.16
2024-04-21T09:34:26.532Z,92515.50
2024-04-21T09:37:30.816Z,92522.94
2024-04-21T09:40:38.231Z,92524.31
2024-04-21T09:43:44.852Z,92527.66
2024-04-21T09:46:49.816Z,92529.03
2024-04-21T09:49:56.430Z,92531.09
2024-04-21T09:53:01.571Z,92537.25
2024-04-21T09:56:10.510Z,92529.94
2024-04-21T09:59:16.447Z,92546.75
2024-04-21T10:02:27.847Z,92543.41
2024-04-21T10:05:33.386Z,92564.91
2024-04-21T10:08:39.926Z,92558.94
2024-04-21T10:11:43.633Z,92558.94
2024-04-21T10:14:48.473Z,92567.00
2024-04-21T10:18:00.215Z,92569.69
2024-04-21T10:21:04.163Z,92574.41
2024-04-21T10:24:08.141Z,92579.81
2024-04-21T10:27:11.891Z,92581.81
2024-04-21T10:30:15.916Z,92585.22
2024-04-21T10:33:30.458Z,92593.94
2024-04-21T10:36:48.633Z,92598.66
2024-04-21T10:40:06.205Z,92603.34
2024-04-21T10:43:10.917Z,92606.06
2024-04-21T10:46:15.074Z,92611.41
2024-04-21T10:49:19.637Z,92610.09
2024-04-21T10:52:23.758Z,92615.47
2024-04-21T10:55:27.911Z,92606.13
2024-04-21T10:58:32.369Z,92604.09
2024-04-21T11:01:36.257Z,92609.47
2024-04-21T11:04:40.354Z,92610.09
2024-04-21T11:07:44.355Z,92611.41
2024-04-21T11:10:47.971Z,92608.06
2024-04-21T11:13:54.413Z,92612.06
2024-04-21T11:17:00.119Z,92610.03
2024-04-21T11:20:04.230Z,92615.38
2024-04-21T11:23:07.891Z,92628.06
2024-04-21T11:26:12.331Z,92626.63
2024-04-21T11:29:16.170Z,92635.31
2024-04-21T11:32:20.130Z,92642.56
2024-04-21T11:35:24.337Z,92652.50
2024-04-21T11:38:28.048Z,92658.50
2024-04-21T11:41:32.264Z,92655.78
2024-04-21T11:44:37.686Z,92655.75
2024-04-21T11:47:44.647Z,92658.41
2024-04-21T11:50:48.556Z,92656.41
2024-04-21T11:53:52.356Z,92663.78
2024-04-21T11:56:56.972Z,92667.78
2024-04-21T12:00:03.361Z,92667.69
2024-04-21T12:03:09.432Z,92669.69
2024-04-21T12:06:13.096Z,92677.09
2024-04-21T12:09:17.059Z,92679.13
2024-04-21T12:12:21.100Z,92674.38
2024-04-21T12:15:24.829Z,92677.53
2024-04-21T12:18:28.598Z,92684.81
2024-04-21T12:21:35.733Z,92689.47
2024-04-21T12:24:42.470Z,92685.44
2024-04-21T12:27:47.313Z,92688.69
2024-04-21T12:30:51.606Z,92695.28
2024-04-21T12:33:55.479Z,92687.28
2024-04-21T12:36:59.077Z,92702.59
2024-04-21T12:40:03.001Z,92703.25
2024-04-21T12:43:06.984Z,92701.84
2024-04-21T12:46:10.793Z,92696.47
2024-04-21T12:49:14.480Z,92699.06
2024-04-21T12:52:18.542Z,92700.41
2024-04-21T12:55:22.653Z,92700.44
2024-04-21T12:58:26.694Z,92699.16
2024-04-21T13:01:30.536Z,92703.16
2024-04-21T13:04:34.416Z,92699.16
2024-04-21T13:07:38.481Z,92705.19
2024-04-21T13:10:42.283Z,92695.19
2024-04-21T13:13:46.183Z,92697.72
2024-04-21T13:16:49.961Z,92692.19
2024-04-21T13:19:53.765Z,92692.75
2024-04-21T13:23:00.271Z,92692.03
2024-04-21T13:26:04.077Z,92687.28
2024-04-21T13:29:07.885Z,92689.22
2024-04-21T13:32:11.503Z,92694.44
2024-04-21T13:35:15.342Z,92690.47
2024-04-21T13:38:18.959Z,92698.44
2024-04-21T13:41:22.760Z,92693.13
2024-04-21T13:44:26.422Z,92691.25
2024-04-21T13:47:33.424Z,92696.69
2024-04-21T13:50:37.712Z,92699.91
2024-04-21T13:53:41.390Z,92701.00
2024-04-21T13:56:45.283Z,92700.88
2024-04-21T13:59:48.984Z,92700.81
2024-04-21T14:02:52.733Z,92703.53
2024-04-21T14:05:56.590Z,92704.88
2024-04-21T14:09:00.520Z,92706.88
2024-04-21T14:12:04.380Z,92703.47
2024-04-21T14:15:08.496Z,92701.41
2024-04-21T14:18:12.147Z,92702.78
2024-04-21T14:21:16.118Z,92692.16
2024-04-21T14:24:20.732Z,92690.91
2024-04-21T14:27:24.534Z,92702.25
2024-04-21T14:30:28.421Z,92695.00
2024-04-21T14:33:33.290Z,92701.66
2024-04-21T14:36:37.470Z,92688.38
2024-04-21T14:39:41.347Z,92691.03
2024-04-21T14:42:44.995Z,92692.41
2024-04-21T14:45:51.680Z,92691.78
2024-04-21T14:48:55.698Z,92690.47
2024-04-21T14:51:59.430Z,92689.16
2024-04-21T14:55:05.466Z,92688.50
2024-04-21T14:58:09.893Z,92685.22
2024-04-21T15:01:13.651Z,92679.88
2024-04-21T15:04:19.649Z,92675.84
2024-04-21T15:07:23.596Z,92679.22
2024-04-21T15:10:28.891Z,92681.13
2024-04-21T15:13:32.852Z,92681.78
2024-04-21T15:16:38.747Z,92675.72
2024-04-21T15:19:43.074Z,92678.34
2024-04-21T15:22:46.875Z,92672.28
2024-04-21T15:25:50.665Z,92672.84
2024-04-21T15:28:54.466Z,92669.41
2024-04-21T15:31:58.311Z,92668.16
2024-04-21T15:35:02.080Z,92668.19
2024-04-21T15:38:06.155Z,92662.88
2024-04-21T15:41:09.860Z,92668.88
2024-04-21T15:44:13.676Z,92667.50
2024-04-21T15:47:17.576Z,92663.50
2024-04-21T15:50:21.568Z,92660.06
2024-04-21T15:53:25.902Z,92667.38
2024-04-21T15:56:29.612Z,92658.66
2024-04-21T15:59:33.225Z,92663.94
2024-04-21T16:02:37.802Z,92659.91
2024-04-21T16:05:43.226Z,92655.91
2024-04-21T16:08:47.069Z,92654.53
2024-04-21T16:11:51.090Z,92664.47
2024-04-21T16:14:54.834Z,92653.03
2024-04-21T16:17:58.482Z,92655.00
2024-04-21T16:21:02.442Z,92654.25
2024-04-21T16:24:06.725Z,92646.81
2024-04-21T16:27:10.571Z,92640.81
2024-04-21T16:30:14.382Z,92636.63
2024-04-21T16:33:18.233Z,92632.44
2024-04-21T16:36:24.689Z,92630.31
2024-04-21T16:39:28.959Z,92614.22
2024-04-21T16:42:32.824Z,92608.16
2024-04-21T16:45:37.533Z,92616.78
2024-04-21T16:48:42.012Z,92612.72
2024-04-21T16:51:46.032Z,92605.88
2024-04-21T16:54:50.703Z,92600.47
2024-04-21T16:57:59.136Z,92601.72
2024-04-21T17:01:03.974Z,92595.69
2024-04-21T17:04:08.455Z,92596.94
2024-04-21T17:07:20.963Z,92596.75
2024-04-21T17:10:26.467Z,92595.78
2024-04-21T17:13:32.097Z,92589.72
2024-04-21T17:16:36.002Z,92593.66
2024-04-21T17:19:39.970Z,92583.72
2024-04-21T17:22:44.280Z,92574.44
2024-04-21T17:25:48.349Z,92583.09
2024-04-21T17:28:52.195Z,92574.41
2024-04-21T17:31:56.286Z,92573.81
2024-04-21T17:35:00.263Z,92575.94
2024-04-21T17:38:04.132Z,92574.63
2024-04-21T17:41:09.932Z,92566.63
2024-04-21T17:44:13.885Z,92568.00
2024-04-21T17:47:18.384Z,92557.38
2024-04-21T17:50:22.354Z,92552.72
2024-04-21T17:53:26.356Z,92550.06
2024-04-21T17:56:30.358Z,92546.06
2024-04-21T17:59:34.763Z,92553.31
2024-04-21T18:02:38.689Z,92549.75
2024-04-21T18:05:42.925Z,92551.03
2024-04-21T18:08:46.938Z,92549.19
2024-04-21T18:11:50.962Z,92551.28
2024-04-21T18:14:54.963Z,92538.72
2024-04-21T18:17:59.001Z,92538.72
2024-04-21T18:21:03.042Z,92535.94
2024-04-21T18:24:07.246Z,92534.53
2024-04-21T18:27:11.321Z,92525.75
2024-04-21T18:30:15.205Z,92529.06
2024-04-21T18:33:19.440Z,92521.03
2024-04-21T18:36:23.374Z,92531.56
2024-04-21T18:39:27.223Z,92528.91
2024-04-21T18:42:31.043Z,92528.16
2024-04-21T18:45:42.331Z,92523.56
2024-04-21T18:48:46.395Z,92524.88
2024-04-21T18:51:50.439Z,92526.25
2024-04-21T18:54:54.757Z,92514.28
2024-04-21T18:57:58.812Z,92519.00
2024-04-21T19:01:14.856Z,92514.34
2024-04-21T19:04:19.003Z,92497.66
2024-04-21T19:07:22.994Z,92502.88
2024-04-21T19:10:28.463Z,92503.41
2024-04-21T19:13:32.985Z,92504.03
2024-04-21T19:16:37.990Z,92503.28
2024-04-21T19:19:42.341Z,92495.88
2024-04-21T19:22:47.124Z,92498.47
2024-04-21T19:25:51.707Z,92503.09
2024-04-21T19:28:55.432Z,92505.72
2024-04-21T19:31:59.402Z,92494.47
2024-04-21T19:35:05.714Z,92503.66
2024-04-21T19:38:09.752Z,92503.06
2024-04-21T19:41:13.814Z,92497.88
2024-04-21T19:44:17.671Z,92503.28
2024-04-21T19:47:21.829Z,92503.28
2024-04-21T19:50:25.969Z,92503.31
2024-04-21T19:53:30.095Z,92502.75
2024-04-21T19:56:35.043Z,92496.28
2024-04-21T19:59:40.275Z,92494.41
2024-04-21T20:02:44.373Z,92502.53
2024-04-21T20:05:48.352Z,92495.34
2024-04-21T20:08:52.322Z,92494.13
2024-04-21T20:11:56.337Z,92497.41
2024-04-21T20:15:19.117Z,92496.03
2024-04-21T20:18:42.158Z,92499.41
2024-04-21T20:21:45.876Z,92503.53
2024-04-21T20:24:49.862Z,92500.84
2024-04-21T20:27:56.050Z,92510.81
2024-04-21T20:31:00.140Z,92506.84
2024-04-21T20:34:04.158Z,92506.19
2024-04-21T20:37:07.982Z,92503.53
2024-04-21T20:40:12.157Z,92495.59
2024-04-21T20:43:16.247Z,92493.06
2024-04-21T20:46:23.599Z,92491.75
2024-04-21T20:49:27.737Z,92492.41
2024-04-21T20:52:31.813Z,92487.19
2024-04-21T20:55:35.737Z,92492.41
2024-04-21T20:58:49.298Z,92487.75
2024-04-21T21:01:56.070Z,92491.09
2024-04-21T21:05:00.407Z,92483.13
2024-04-21T21:08:04.607Z,92495.06
2024-04-21T21:11:08.628Z,92495.72
2024-04-21T21:14:12.211Z,92496.31
2024-04-21T21:17:15.932Z,92496.22
2024-04-21T21:20:19.546Z,92495.41
2024-04-21T21:23:25.146Z,92504.56
2024-04-21T21:26:28.698Z,92495.94
2024-04-21T21:29:32.431Z,92490.66
2024-04-21T21:32:40.831Z,92488.69
2024-04-21T21:35:54.657Z,92498.72
2024-04-21T21:39:02.759Z,92495.88
2024-04-21T21:42:07.404Z,92503.16
2024-04-21T21:45:11.046Z,92504.34
2024-04-21T21:48:14.979Z,92502.25
2024-04-21T21:51:18.958Z,92506.81
2024-04-21T21:54:22.593Z,92508.66
2024-04-21T21:57:26.589Z,92507.25
2024-04-21T22:00:30.098Z,92507.88
2024-04-21T22:03:33.897Z,92506.66
2024-04-21T22:06:37.422Z,92498.69
2024-04-21T22:09:41.391Z,92500.06
2024-04-21T22:12:45.212Z,92498.28
2024-04-21T22:15:48.734Z,92503.66
2024-04-21T22:18:52.446Z,92498.28
2024-04-21T22:21:56.175Z,92500.78
2024-04-21T22:24:59.927Z,92498.81
2024-04-21T22:28:04.596Z,92497.63
2024-04-21T22:31:08.536Z,92486.94
2024-04-21T22:34:12.215Z,92492.97
2024-04-21T22:37:15.992Z,92484.25
2024-04-21T22:40:19.915Z,92474.38
2024-04-21T22:43:24.361Z,92479.88
2024-04-21T22:46:28.335Z,92485.81
2024-04-21T22:49:32.185Z,92479.25
2024-04-21T22:52:36.890Z,92481.28
2024-04-21T22:55:40.712Z,92480.56
2024-04-21T22:58:44.495Z,92481.19
2024-04-21T23:01:48.538Z,92477.16
2024-04-21T23:04:55.467Z,92477.94
2024-04-21T23:07:59.254Z,92471.28
2024-04-21T23:11:06.042Z,92474.09
2024-04-21T23:14:10.314Z,92469.50
2024-04-21T23:17:13.884Z,92474.78
2024-04-21T23:20:19.757Z,92475.56
2024-04-21T23:23:24.705Z,92463.09
2024-04-21T23:26:28.838Z,92463.19
2024-04-21T23:29:33.268Z,92458.63
2024-04-21T23:32:37.603Z,92460.69
2024-04-21T23:35:42.133Z,92451.44
2024-04-21T23:38:45.897Z,92446.81
2024-04-21T23:41:49.588Z,92447.56
2024-04-21T23:44:53.446Z,92446.31
2024-04-21T23:47:58.043Z,92449.09
2024-04-21T23:51:01.689Z,92445.88
2024-04-21T23:54:05.705Z,92446.69
2024-04-21T23:57:09.369Z,92437.47
